sensor_id;sensor_type;location;lat;lon;timestamp;temperature;humidity
4578;DHT22;2301;47.354;8.528;2023-02-24T00:01:20;13.40;78.00
4578;DHT22;2301;47.354;8.528;2023-02-24T00:03:50;13.50;78.40
4578;DHT22;2301;47.354;8.528;2023-02-24T00:06:17;13.50;77.70
4578;DHT22;2301;47.354;8.528;2023-02-24T00:08:44;13.50;77.50
4578;DHT22;2301;47.354;8.528;2023-02-24T00:11:14;13.50;77.60
4578;DHT22;2301;47.354;8.528;2023-02-24T00:13:44;13.50;77.30
4578;DHT22;2301;47.354;8.528;2023-02-24T00:16:13;13.50;77.00
4578;DHT22;2301;47.354;8.528;2023-02-24T00:18:41;13.50;77.30
4578;DHT22;2301;47.354;8.528;2023-02-24T00:21:10;13.50;77.30
4578;DHT22;2301;47.354;8.528;2023-02-24T00:23:38;13.50;77.00
4578;DHT22;2301;47.354;8.528;2023-02-24T00:26:08;13.50;76.70
4578;DHT22;2301;47.354;8.528;2023-02-24T00:28:36;13.50;76.70
4578;DHT22;2301;47.354;8.528;2023-02-24T00:31:05;13.50;76.60
4578;DHT22;2301;47.354;8.528;2023-02-24T00:33:34;13.50;76.90
4578;DHT22;2301;47.354;8.528;2023-02-24T00:36:09;13.60;77.30
4578;DHT22;2301;47.354;8.528;2023-02-24T00:38:38;13.50;75.70
4578;DHT22;2301;47.354;8.528;2023-02-24T00:41:10;13.50;76.00
4578;DHT22;2301;47.354;8.528;2023-02-24T00:43:39;13.50;76.20
4578;DHT22;2301;47.354;8.528;2023-02-24T00:46:13;13.50;75.80
4578;DHT22;2301;47.354;8.528;2023-02-24T00:48:42;13.30;74.90
4578;DHT22;2301;47.354;8.528;2023-02-24T00:51:12;13.20;74.20
4578;DHT22;2301;47.354;8.528;2023-02-24T00:53:42;13.10;75.20
4578;DHT22;2301;47.354;8.528;2023-02-24T00:56:10;13.00;75.60
4578;DHT22;2301;47.354;8.528;2023-02-24T00:58:39;12.90;75.90
4578;DHT22;2301;47.354;8.528;2023-02-24T01:01:13;12.90;76.10
4578;DHT22;2301;47.354;8.528;2023-02-24T01:03:41;12.90;77.20
4578;DHT22;2301;47.354;8.528;2023-02-24T01:06:09;13.00;77.30
4578;DHT22;2301;47.354;8.528;2023-02-24T01:08:37;13.00;76.50
4578;DHT22;2301;47.354;8.528;2023-02-24T01:11:08;12.90;76.50
4578;DHT22;2301;47.354;8.528;2023-02-24T01:13:53;13.00;76.30
4578;DHT22;2301;47.354;8.528;2023-02-24T01:16:21;12.90;76.30
4578;DHT22;2301;47.354;8.528;2023-02-24T01:18:48;12.90;76.20
4578;DHT22;2301;47.354;8.528;2023-02-24T01:21:17;12.80;76.10
4578;DHT22;2301;47.354;8.528;2023-02-24T01:23:46;12.90;76.60
4578;DHT22;2301;47.354;8.528;2023-02-24T01:26:14;12.90;77.20
4578;DHT22;2301;47.354;8.528;2023-02-24T01:28:41;12.90;76.30
4578;DHT22;2301;47.354;8.528;2023-02-24T01:31:13;12.90;75.30
4578;DHT22;2301;47.354;8.528;2023-02-24T01:33:43;12.80;76.10
4578;DHT22;2301;47.354;8.528;2023-02-24T01:36:13;12.80;76.30
4578;DHT22;2301;47.354;8.528;2023-02-24T01:38:41;12.90;76.80
4578;DHT22;2301;47.354;8.528;2023-02-24T01:41:08;12.90;76.00
4578;DHT22;2301;47.354;8.528;2023-02-24T01:43:54;12.90;76.20
4578;DHT22;2301;47.354;8.528;2023-02-24T01:46:25;12.90;76.20
4578;DHT22;2301;47.354;8.528;2023-02-24T01:48:59;12.90;75.90
4578;DHT22;2301;47.354;8.528;2023-02-24T01:51:33;12.80;75.50
4578;DHT22;2301;47.354;8.528;2023-02-24T01:54:05;12.80;75.70
4578;DHT22;2301;47.354;8.528;2023-02-24T01:56:36;12.80;75.70
4578;DHT22;2301;47.354;8.528;2023-02-24T01:59:07;12.80;75.40
4578;DHT22;2301;47.354;8.528;2023-02-24T02:01:35;12.80;76.70
4578;DHT22;2301;47.354;8.528;2023-02-24T02:04:11;12.90;77.30
4578;DHT22;2301;47.354;8.528;2023-02-24T02:06:41;12.90;77.10
4578;DHT22;2301;47.354;8.528;2023-02-24T02:09:09;13.00;77.00
4578;DHT22;2301;47.354;8.528;2023-02-24T02:11:36;13.00;76.50
4578;DHT22;2301;47.354;8.528;2023-02-24T02:14:03;13.10;76.10
4578;DHT22;2301;47.354;8.528;2023-02-24T02:17:01;13.10;76.20
4578;DHT22;2301;47.354;8.528;2023-02-24T02:25:39;13.10;75.40
4578;DHT22;2301;47.354;8.528;2023-02-24T02:28:59;13.00;75.60
4578;DHT22;2301;47.354;8.528;2023-02-24T02:32:02;13.00;75.20
4578;DHT22;2301;47.354;8.528;2023-02-24T02:34:42;13.00;75.30
4578;DHT22;2301;47.354;8.528;2023-02-24T02:37:14;13.00;75.30
4578;DHT22;2301;47.354;8.528;2023-02-24T02:39:48;13.00;75.60
4578;DHT22;2301;47.354;8.528;2023-02-24T02:42:25;13.00;75.30
4578;DHT22;2301;47.354;8.528;2023-02-24T02:45:01;13.00;75.30
4578;DHT22;2301;47.354;8.528;2023-02-24T02:47:36;13.00;75.40
4578;DHT22;2301;47.354;8.528;2023-02-24T02:50:12;13.00;75.20
4578;DHT22;2301;47.354;8.528;2023-02-24T02:52:49;13.00;74.60
4578;DHT22;2301;47.354;8.528;2023-02-24T02:55:22;13.00;74.70
4578;DHT22;2301;47.354;8.528;2023-02-24T02:57:52;13.00;74.50
4578;DHT22;2301;47.354;8.528;2023-02-24T03:00:22;13.00;74.50
4578;DHT22;2301;47.354;8.528;2023-02-24T03:02:57;12.90;74.60
4578;DHT22;2301;47.354;8.528;2023-02-24T03:05:33;13.00;75.00
4578;DHT22;2301;47.354;8.528;2023-02-24T03:08:02;13.00;74.80
4578;DHT22;2301;47.354;8.528;2023-02-24T03:10:36;13.00;75.20
4578;DHT22;2301;47.354;8.528;2023-02-24T03:13:08;13.10;75.20
4578;DHT22;2301;47.354;8.528;2023-02-24T03:15:39;13.20;75.10
4578;DHT22;2301;47.354;8.528;2023-02-24T03:18:14;13.10;74.50
4578;DHT22;2301;47.354;8.528;2023-02-24T03:20:48;13.10;73.90
4578;DHT22;2301;47.354;8.528;2023-02-24T03:23:18;13.10;74.70
4578;DHT22;2301;47.354;8.528;2023-02-24T03:25:53;13.10;74.80
4578;DHT22;2301;47.354;8.528;2023-02-24T03:28:29;13.10;74.50
4578;DHT22;2301;47.354;8.528;2023-02-24T03:31:03;13.10;74.20
4578;DHT22;2301;47.354;8.528;2023-02-24T03:33:35;13.10;74.80
4578;DHT22;2301;47.354;8.528;2023-02-24T03:36:07;13.10;74.80
4578;DHT22;2301;47.354;8.528;2023-02-24T03:38:34;13.10;74.40
4578;DHT22;2301;47.354;8.528;2023-02-24T03:41:03;13.20;74.20
4578;DHT22;2301;47.354;8.528;2023-02-24T03:43:38;13.20;74.10
4578;DHT22;2301;47.354;8.528;2023-02-24T03:46:06;13.20;73.60
4578;DHT22;2301;47.354;8.528;2023-02-24T03:48:39;13.10;73.80
4578;DHT22;2301;47.354;8.528;2023-02-24T03:51:14;13.20;74.00
4578;DHT22;2301;47.354;8.528;2023-02-24T03:53:55;13.20;73.60
4578;DHT22;2301;47.354;8.528;2023-02-24T03:56:29;13.20;73.50
4578;DHT22;2301;47.354;8.528;2023-02-24T03:59:12;13.20;73.90
4578;DHT22;2301;47.354;8.528;2023-02-24T04:01:45;13.10;73.20
4578;DHT22;2301;47.354;8.528;2023-02-24T04:04:18;13.10;73.40
4578;DHT22;2301;47.354;8.528;2023-02-24T04:06:53;13.10;73.50
4578;DHT22;2301;47.354;8.528;2023-02-24T04:09:28;13.00;73.10
4578;DHT22;2301;47.354;8.528;2023-02-24T04:12:06;13.10;73.90
4578;DHT22;2301;47.354;8.528;2023-02-24T04:14:40;13.10;74.10
4578;DHT22;2301;47.354;8.528;2023-02-24T04:17:15;13.10;73.60
4578;DHT22;2301;47.354;8.528;2023-02-24T04:19:47;13.00;73.40
4578;DHT22;2301;47.354;8.528;2023-02-24T04:22:18;13.00;73.80
4578;DHT22;2301;47.354;8.528;2023-02-24T04:24:50;13.00;73.10
4578;DHT22;2301;47.354;8.528;2023-02-24T04:27:20;13.00;73.60
4578;DHT22;2301;47.354;8.528;2023-02-24T04:29:52;13.00;73.80
4578;DHT22;2301;47.354;8.528;2023-02-24T04:32:24;13.00;73.50
4578;DHT22;2301;47.354;8.528;2023-02-24T04:35:00;13.00;73.90
4578;DHT22;2301;47.354;8.528;2023-02-24T04:37:29;13.10;74.00
4578;DHT22;2301;47.354;8.528;2023-02-24T04:39:58;13.00;74.00
4578;DHT22;2301;47.354;8.528;2023-02-24T04:42:25;13.00;73.80
4578;DHT22;2301;47.354;8.528;2023-02-24T04:44:53;13.00;73.90
4578;DHT22;2301;47.354;8.528;2023-02-24T04:47:23;13.00;73.70
4578;DHT22;2301;47.354;8.528;2023-02-24T04:49:53;13.00;73.60
4578;DHT22;2301;47.354;8.528;2023-02-24T04:52:20;13.00;73.70
4578;DHT22;2301;47.354;8.528;2023-02-24T04:54:48;13.00;73.40
4578;DHT22;2301;47.354;8.528;2023-02-24T04:57:15;13.10;74.00
4578;DHT22;2301;47.354;8.528;2023-02-24T04:59:42;13.10;74.10
4578;DHT22;2301;47.354;8.528;2023-02-24T05:02:09;13.10;73.80
4578;DHT22;2301;47.354;8.528;2023-02-24T05:04:40;13.00;73.60
4578;DHT22;2301;47.354;8.528;2023-02-24T05:07:07;13.00;73.40
4578;DHT22;2301;47.354;8.528;2023-02-24T05:09:37;13.00;73.40
4578;DHT22;2301;47.354;8.528;2023-02-24T05:12:07;13.00;73.30
4578;DHT22;2301;47.354;8.528;2023-02-24T05:14:34;12.90;73.70
4578;DHT22;2301;47.354;8.528;2023-02-24T05:17:03;12.90;73.30
4578;DHT22;2301;47.354;8.528;2023-02-24T05:19:31;13.00;73.90
4578;DHT22;2301;47.354;8.528;2023-02-24T05:22:15;13.10;73.80
4578;DHT22;2301;47.354;8.528;2023-02-24T05:24:42;13.00;73.10
4578;DHT22;2301;47.354;8.528;2023-02-24T05:27:13;13.10;73.30
4578;DHT22;2301;47.354;8.528;2023-02-24T05:29:41;13.10;72.90
4578;DHT22;2301;47.354;8.528;2023-02-24T05:32:09;13.00;72.70
4578;DHT22;2301;47.354;8.528;2023-02-24T05:34:36;12.90;72.70
4578;DHT22;2301;47.354;8.528;2023-02-24T05:37:04;12.90;73.40
4578;DHT22;2301;47.354;8.528;2023-02-24T05:39:35;12.90;73.50
4578;DHT22;2301;47.354;8.528;2023-02-24T05:42:02;13.00;73.00
4578;DHT22;2301;47.354;8.528;2023-02-24T05:44:33;12.90;73.20
4578;DHT22;2301;47.354;8.528;2023-02-24T05:47:01;12.80;73.20
4578;DHT22;2301;47.354;8.528;2023-02-24T05:49:31;12.90;73.80
4578;DHT22;2301;47.354;8.528;2023-02-24T05:52:00;12.90;74.00
4578;DHT22;2301;47.354;8.528;2023-02-24T05:54:33;12.90;73.60
4578;DHT22;2301;47.354;8.528;2023-02-24T05:57:02;12.90;73.70
4578;DHT22;2301;47.354;8.528;2023-02-24T05:59:32;13.00;74.30
4578;DHT22;2301;47.354;8.528;2023-02-24T06:02:05;13.10;74.50
4578;DHT22;2301;47.354;8.528;2023-02-24T06:04:36;13.10;73.90
4578;DHT22;2301;47.354;8.528;2023-02-24T06:07:14;13.10;74.00
4578;DHT22;2301;47.354;8.528;2023-02-24T06:09:46;13.00;73.00
4578;DHT22;2301;47.354;8.528;2023-02-24T06:12:15;12.90;72.40
4578;DHT22;2301;47.354;8.528;2023-02-24T06:14:43;12.80;72.90
4578;DHT22;2301;47.354;8.528;2023-02-24T06:17:10;12.70;73.20
4578;DHT22;2301;47.354;8.528;2023-02-24T06:19:39;12.60;73.40
4578;DHT22;2301;47.354;8.528;2023-02-24T06:22:11;12.60;74.00
4578;DHT22;2301;47.354;8.528;2023-02-24T06:24:39;12.60;73.50
4578;DHT22;2301;47.354;8.528;2023-02-24T06:27:09;12.50;73.10
4578;DHT22;2301;47.354;8.528;2023-02-24T06:29:44;12.50;73.40
4578;DHT22;2301;47.354;8.528;2023-02-24T06:32:14;12.50;73.40
4578;DHT22;2301;47.354;8.528;2023-02-24T06:34:41;12.40;73.40
4578;DHT22;2301;47.354;8.528;2023-02-24T06:37:11;12.40;73.90
4578;DHT22;2301;47.354;8.528;2023-02-24T06:39:39;12.40;73.70
4578;DHT22;2301;47.354;8.528;2023-02-24T06:42:09;12.40;74.00
4578;DHT22;2301;47.354;8.528;2023-02-24T06:44:38;12.50;74.30
4578;DHT22;2301;47.354;8.528;2023-02-24T06:47:10;12.60;73.50
4578;DHT22;2301;47.354;8.528;2023-02-24T06:49:38;12.60;71.90
4578;DHT22;2301;47.354;8.528;2023-02-24T06:52:06;12.60;72.30
4578;DHT22;2301;47.354;8.528;2023-02-24T06:54:33;12.60;71.70
4578;DHT22;2301;47.354;8.528;2023-02-24T06:57:00;12.60;71.70
4578;DHT22;2301;47.354;8.528;2023-02-24T06:59:28;12.60;71.40
4578;DHT22;2301;47.354;8.528;2023-02-24T07:01:58;12.60;72.40
4578;DHT22;2301;47.354;8.528;2023-02-24T07:04:27;12.80;73.10
4578;DHT22;2301;47.354;8.528;2023-02-24T07:06:57;12.80;73.20
4578;DHT22;2301;47.354;8.528;2023-02-24T07:09:27;13.00;73.30
4578;DHT22;2301;47.354;8.528;2023-02-24T07:11:55;13.10;73.20
4578;DHT22;2301;47.354;8.528;2023-02-24T07:14:25;13.20;72.90
4578;DHT22;2301;47.354;8.528;2023-02-24T07:16:52;13.30;73.30
4578;DHT22;2301;47.354;8.528;2023-02-24T07:19:21;13.40;72.30
4578;DHT22;2301;47.354;8.528;2023-02-24T07:21:49;13.40;71.80
4578;DHT22;2301;47.354;8.528;2023-02-24T07:24:19;13.30;71.30
4578;DHT22;2301;47.354;8.528;2023-02-24T07:26:57;13.40;71.70
4578;DHT22;2301;47.354;8.528;2023-02-24T07:29:26;13.40;71.90
4578;DHT22;2301;47.354;8.528;2023-02-24T07:31:53;13.40;71.70
4578;DHT22;2301;47.354;8.528;2023-02-24T07:34:21;13.50;71.60
4578;DHT22;2301;47.354;8.528;2023-02-24T07:36:51;13.60;72.00
4578;DHT22;2301;47.354;8.528;2023-02-24T07:39:19;14.00;71.10
4578;DHT22;2301;47.354;8.528;2023-02-24T07:41:48;13.70;67.60
4578;DHT22;2301;47.354;8.528;2023-02-24T07:44:17;13.40;66.90
4578;DHT22;2301;47.354;8.528;2023-02-24T07:46:45;13.00;67.20
4578;DHT22;2301;47.354;8.528;2023-02-24T07:49:16;12.70;68.60
4578;DHT22;2301;47.354;8.528;2023-02-24T07:51:46;12.40;68.10
4578;DHT22;2301;47.354;8.528;2023-02-24T07:54:21;12.20;68.50
4578;DHT22;2301;47.354;8.528;2023-02-24T07:56:50;12.00;69.00
4578;DHT22;2301;47.354;8.528;2023-02-24T07:59:24;11.90;69.90
4578;DHT22;2301;47.354;8.528;2023-02-24T08:01:52;11.80;71.10
4578;DHT22;2301;47.354;8.528;2023-02-24T08:04:22;11.70;72.50
4578;DHT22;2301;47.354;8.528;2023-02-24T08:06:50;11.70;72.30
4578;DHT22;2301;47.354;8.528;2023-02-24T08:09:24;11.80;73.10
4578;DHT22;2301;47.354;8.528;2023-02-24T08:12:09;11.80;73.40
4578;DHT22;2301;47.354;8.528;2023-02-24T08:14:36;11.90;73.60
4578;DHT22;2301;47.354;8.528;2023-02-24T08:17:10;12.00;73.20
4578;DHT22;2301;47.354;8.528;2023-02-24T08:19:41;12.10;73.20
4578;DHT22;2301;47.354;8.528;2023-02-24T08:22:10;12.10;73.50
4578;DHT22;2301;47.354;8.528;2023-02-24T08:24:47;12.40;74.00
4578;DHT22;2301;47.354;8.528;2023-02-24T08:27:17;12.50;74.00
4578;DHT22;2301;47.354;8.528;2023-02-24T08:29:47;12.70;74.10
4578;DHT22;2301;47.354;8.528;2023-02-24T08:32:25;12.90;73.90
4578;DHT22;2301;47.354;8.528;2023-02-24T08:34:58;13.10;73.30
4578;DHT22;2301;47.354;8.528;2023-02-24T08:37:28;13.30;73.00
4578;DHT22;2301;47.354;8.528;2023-02-24T08:40:00;13.50;72.60
4578;DHT22;2301;47.354;8.528;2023-02-24T08:42:29;13.70;72.10
4578;DHT22;2301;47.354;8.528;2023-02-24T08:44:59;13.90;71.50
4578;DHT22;2301;47.354;8.528;2023-02-24T08:47:27;14.00;70.90
4578;DHT22;2301;47.354;8.528;2023-02-24T08:49:56;14.20;70.50
4578;DHT22;2301;47.354;8.528;2023-02-24T08:52:25;14.40;70.10
4578;DHT22;2301;47.354;8.528;2023-02-24T08:54:53;14.50;69.50
4578;DHT22;2301;47.354;8.528;2023-02-24T08:57:25;14.70;68.70
4578;DHT22;2301;47.354;8.528;2023-02-24T08:59:52;14.80;68.10
4578;DHT22;2301;47.354;8.528;2023-02-24T09:02:24;14.90;67.20
4578;DHT22;2301;47.354;8.528;2023-02-24T09:04:56;15.00;66.80
4578;DHT22;2301;47.354;8.528;2023-02-24T09:07:25;15.20;66.50
4578;DHT22;2301;47.354;8.528;2023-02-24T09:09:53;15.40;66.20
4578;DHT22;2301;47.354;8.528;2023-02-24T09:12:25;15.60;65.70
4578;DHT22;2301;47.354;8.528;2023-02-24T09:14:56;15.80;65.20
4578;DHT22;2301;47.354;8.528;2023-02-24T09:17:24;16.00;64.30
4578;DHT22;2301;47.354;8.528;2023-02-24T09:20:15;16.10;63.10
4578;DHT22;2301;47.354;8.528;2023-02-24T09:23:00;16.20;62.00
4578;DHT22;2301;47.354;8.528;2023-02-24T09:25:31;16.30;61.80
4578;DHT22;2301;47.354;8.528;2023-02-24T09:28:12;16.40;62.00
4578;DHT22;2301;47.354;8.528;2023-02-24T09:30:43;16.50;60.90
4578;DHT22;2301;47.354;8.528;2023-02-24T09:33:19;16.60;60.70
4578;DHT22;2301;47.354;8.528;2023-02-24T09:35:53;16.70;60.90
4578;DHT22;2301;47.354;8.528;2023-02-24T09:38:28;16.80;59.90
4578;DHT22;2301;47.354;8.528;2023-02-24T09:41:28;17.00;59.70
4578;DHT22;2301;47.354;8.528;2023-02-24T09:44:00;17.10;59.40
4578;DHT22;2301;47.354;8.528;2023-02-24T09:46:37;17.20;59.10
4578;DHT22;2301;47.354;8.528;2023-02-24T09:49:13;17.30;58.50
4578;DHT22;2301;47.354;8.528;2023-02-24T09:51:42;17.40;58.30
4578;DHT22;2301;47.354;8.528;2023-02-24T09:54:14;17.50;58.00
4578;DHT22;2301;47.354;8.528;2023-02-24T09:56:49;17.60;57.60
4578;DHT22;2301;47.354;8.528;2023-02-24T09:59:27;17.70;57.00
4578;DHT22;2301;47.354;8.528;2023-02-24T10:02:03;17.70;56.90
4578;DHT22;2301;47.354;8.528;2023-02-24T10:04:51;17.80;56.70
4578;DHT22;2301;47.354;8.528;2023-02-24T10:07:26;17.80;57.00
4578;DHT22;2301;47.354;8.528;2023-02-24T10:09:56;17.90;56.30
4578;DHT22;2301;47.354;8.528;2023-02-24T10:12:47;18.00;56.00
4578;DHT22;2301;47.354;8.528;2023-02-24T10:15:20;18.00;55.90
4578;DHT22;2301;47.354;8.528;2023-02-24T10:18:25;18.00;55.20
4578;DHT22;2301;47.354;8.528;2023-02-24T10:20:56;18.00;54.90
4578;DHT22;2301;47.354;8.528;2023-02-24T10:23:28;18.00;55.40
4578;DHT22;2301;47.354;8.528;2023-02-24T10:26:03;18.10;55.90
4578;DHT22;2301;47.354;8.528;2023-02-24T10:28:37;18.20;55.10
4578;DHT22;2301;47.354;8.528;2023-02-24T10:31:10;18.30;54.90
4578;DHT22;2301;47.354;8.528;2023-02-24T10:33:51;18.30;54.70
4578;DHT22;2301;47.354;8.528;2023-02-24T10:36:22;18.30;54.20
4578;DHT22;2301;47.354;8.528;2023-02-24T10:38:56;18.40;54.00
4578;DHT22;2301;47.354;8.528;2023-02-24T10:41:25;18.60;54.30
4578;DHT22;2301;47.354;8.528;2023-02-24T10:43:54;18.70;53.90
4578;DHT22;2301;47.354;8.528;2023-02-24T10:46:26;18.80;52.80
4578;DHT22;2301;47.354;8.528;2023-02-24T10:48:59;18.80;52.10
4578;DHT22;2301;47.354;8.528;2023-02-24T10:51:34;18.70;51.40
4578;DHT22;2301;47.354;8.528;2023-02-24T10:54:10;18.70;51.70
4578;DHT22;2301;47.354;8.528;2023-02-24T10:56:55;18.90;58.60
4578;DHT22;2301;47.354;8.528;2023-02-24T10:59:44;19.30;60.50
4578;DHT22;2301;47.354;8.528;2023-02-24T11:02:48;19.80;59.60
4578;DHT22;2301;47.354;8.528;2023-02-24T11:05:35;20.00;53.50
4578;DHT22;2301;47.354;8.528;2023-02-24T11:08:13;19.90;50.90
4578;DHT22;2301;47.354;8.528;2023-02-24T11:11:01;19.80;50.20
4578;DHT22;2301;47.354;8.528;2023-02-24T11:13:33;19.80;50.60
4578;DHT22;2301;47.354;8.528;2023-02-24T11:16:40;19.90;50.50
4578;DHT22;2301;47.354;8.528;2023-02-24T11:19:28;20.00;50.60
4578;DHT22;2301;47.354;8.528;2023-02-24T11:21:56;20.00;50.80
4578;DHT22;2301;47.354;8.528;2023-02-24T11:24:24;19.80;47.80
4578;DHT22;2301;47.354;8.528;2023-02-24T11:26:52;19.80;48.40
4578;DHT22;2301;47.354;8.528;2023-02-24T11:29:33;19.70;48.40
4578;DHT22;2301;47.354;8.528;2023-02-24T11:32:22;19.70;48.70
4578;DHT22;2301;47.354;8.528;2023-02-24T11:35:01;19.60;48.30
4578;DHT22;2301;47.354;8.528;2023-02-24T11:37:35;19.50;48.50
4578;DHT22;2301;47.354;8.528;2023-02-24T11:40:09;19.50;49.10
4578;DHT22;2301;47.354;8.528;2023-02-24T11:42:40;19.50;48.40
4578;DHT22;2301;47.354;8.528;2023-02-24T11:45:18;19.40;48.50
4578;DHT22;2301;47.354;8.528;2023-02-24T11:47:51;19.40;49.60
4578;DHT22;2301;47.354;8.528;2023-02-24T11:50:29;19.40;49.70
4578;DHT22;2301;47.354;8.528;2023-02-24T11:53:00;19.40;49.50
4578;DHT22;2301;47.354;8.528;2023-02-24T11:55:33;19.50;49.70
4578;DHT22;2301;47.354;8.528;2023-02-24T11:58:08;19.50;49.20
4578;DHT22;2301;47.354;8.528;2023-02-24T12:00:41;19.50;49.60
4578;DHT22;2301;47.354;8.528;2023-02-24T12:03:14;19.50;50.30
4578;DHT22;2301;47.354;8.528;2023-02-24T12:05:47;19.50;50.40
4578;DHT22;2301;47.354;8.528;2023-02-24T12:08:23;19.60;50.00
4578;DHT22;2301;47.354;8.528;2023-02-24T12:10:57;19.70;50.30
4578;DHT22;2301;47.354;8.528;2023-02-24T12:13:31;19.70;49.90
4578;DHT22;2301;47.354;8.528;2023-02-24T12:16:08;19.70;49.90
4578;DHT22;2301;47.354;8.528;2023-02-24T12:18:38;19.60;49.60
4578;DHT22;2301;47.354;8.528;2023-02-24T12:21:11;19.50;49.60
4578;DHT22;2301;47.354;8.528;2023-02-24T12:23:42;19.50;50.00
4578;DHT22;2301;47.354;8.528;2023-02-24T12:26:17;19.50;50.10
4578;DHT22;2301;47.354;8.528;2023-02-24T12:29:11;19.60;50.00
4578;DHT22;2301;47.354;8.528;2023-02-24T12:31:49;19.60;49.60
4578;DHT22;2301;47.354;8.528;2023-02-24T12:34:27;19.50;49.40
4578;DHT22;2301;47.354;8.528;2023-02-24T12:37:12;19.50;49.50
4578;DHT22;2301;47.354;8.528;2023-02-24T12:39:50;19.40;49.50
4578;DHT22;2301;47.354;8.528;2023-02-24T12:42:25;19.30;49.40
4578;DHT22;2301;47.354;8.528;2023-02-24T12:45:03;19.20;49.20
4578;DHT22;2301;47.354;8.528;2023-02-24T12:47:44;19.20;49.40
4578;DHT22;2301;47.354;8.528;2023-02-24T12:50:34;19.20;49.50
4578;DHT22;2301;47.354;8.528;2023-02-24T12:53:11;19.10;49.90
4578;DHT22;2301;47.354;8.528;2023-02-24T12:55:44;19.20;50.20
4578;DHT22;2301;47.354;8.528;2023-02-24T12:58:15;19.20;50.30
4578;DHT22;2301;47.354;8.528;2023-02-24T13:00:56;19.30;50.20
4578;DHT22;2301;47.354;8.528;2023-02-24T13:03:44;19.40;50.50
4578;DHT22;2301;47.354;8.528;2023-02-24T13:06:19;19.50;50.50
4578;DHT22;2301;47.354;8.528;2023-02-24T13:08:57;19.40;49.70
4578;DHT22;2301;47.354;8.528;2023-02-24T13:11:36;19.40;50.10
4578;DHT22;2301;47.354;8.528;2023-02-24T13:14:11;19.50;50.20
4578;DHT22;2301;47.354;8.528;2023-02-24T13:16:39;19.50;50.10
4578;DHT22;2301;47.354;8.528;2023-02-24T13:19:18;19.50;49.70
4578;DHT22;2301;47.354;8.528;2023-02-24T13:21:57;19.60;50.10
4578;DHT22;2301;47.354;8.528;2023-02-24T13:24:28;19.80;49.20
4578;DHT22;2301;47.354;8.528;2023-02-24T13:27:04;19.80;48.30
4578;DHT22;2301;47.354;8.528;2023-02-24T13:29:42;19.90;48.30
4578;DHT22;2301;47.354;8.528;2023-02-24T13:32:24;20.00;48.20
4578;DHT22;2301;47.354;8.528;2023-02-24T13:34:53;20.10;48.80
4578;DHT22;2301;47.354;8.528;2023-02-24T13:37:29;20.10;48.60
4578;DHT22;2301;47.354;8.528;2023-02-24T13:39:58;20.20;48.20
4578;DHT22;2301;47.354;8.528;2023-02-24T13:42:26;20.20;48.00
4578;DHT22;2301;47.354;8.528;2023-02-24T13:45:02;20.20;47.60
4578;DHT22;2301;47.354;8.528;2023-02-24T13:47:55;20.30;47.70
4578;DHT22;2301;47.354;8.528;2023-02-24T13:50:30;20.30;47.50
4578;DHT22;2301;47.354;8.528;2023-02-24T13:53:12;20.40;47.80
4578;DHT22;2301;47.354;8.528;2023-02-24T13:56:05;20.50;47.60
4578;DHT22;2301;47.354;8.528;2023-02-24T14:01:48;20.50;47.50
4578;DHT22;2301;47.354;8.528;2023-02-24T14:04:19;20.50;47.30
4578;DHT22;2301;47.354;8.528;2023-02-24T14:06:51;20.50;47.10
4578;DHT22;2301;47.354;8.528;2023-02-24T14:09:23;20.50;47.70
4578;DHT22;2301;47.354;8.528;2023-02-24T14:11:57;20.60;47.50
4578;DHT22;2301;47.354;8.528;2023-02-24T14:14:26;20.60;47.50
4578;DHT22;2301;47.354;8.528;2023-02-24T14:16:53;20.60;47.60
4578;DHT22;2301;47.354;8.528;2023-02-24T14:19:23;20.60;47.20
4578;DHT22;2301;47.354;8.528;2023-02-24T14:21:51;20.50;47.60
4578;DHT22;2301;47.354;8.528;2023-02-24T14:24:19;20.50;48.70
4578;DHT22;2301;47.354;8.528;2023-02-24T14:26:49;20.40;48.20
4578;DHT22;2301;47.354;8.528;2023-02-24T14:29:20;20.40;49.10
4578;DHT22;2301;47.354;8.528;2023-02-24T14:31:48;20.30;48.60
4578;DHT22;2301;47.354;8.528;2023-02-24T14:34:19;20.30;48.90
4578;DHT22;2301;47.354;8.528;2023-02-24T14:36:47;20.20;48.90
4578;DHT22;2301;47.354;8.528;2023-02-24T14:39:17;20.20;48.80
4578;DHT22;2301;47.354;8.528;2023-02-24T14:41:45;20.10;48.90
4578;DHT22;2301;47.354;8.528;2023-02-24T14:44:20;20.00;48.90
4578;DHT22;2301;47.354;8.528;2023-02-24T14:46:49;20.00;49.40
4578;DHT22;2301;47.354;8.528;2023-02-24T14:49:22;20.10;49.50
4578;DHT22;2301;47.354;8.528;2023-02-24T14:51:54;20.10;49.90
4578;DHT22;2301;47.354;8.528;2023-02-24T14:54:35;20.20;49.50
4578;DHT22;2301;47.354;8.528;2023-02-24T14:57:04;20.20;49.40
4578;DHT22;2301;47.354;8.528;2023-02-24T14:59:35;20.10;49.70
4578;DHT22;2301;47.354;8.528;2023-02-24T15:02:08;20.10;49.70
4578;DHT22;2301;47.354;8.528;2023-02-24T15:04:39;20.00;49.60
4578;DHT22;2301;47.354;8.528;2023-02-24T15:07:15;20.00;49.90
4578;DHT22;2301;47.354;8.528;2023-02-24T15:09:44;20.10;50.10
4578;DHT22;2301;47.354;8.528;2023-02-24T15:12:20;20.00;49.80
4578;DHT22;2301;47.354;8.528;2023-02-24T15:14:52;20.00;49.40
4578;DHT22;2301;47.354;8.528;2023-02-24T15:17:21;19.80;48.70
4578;DHT22;2301;47.354;8.528;2023-02-24T15:19:48;19.80;48.70
4578;DHT22;2301;47.354;8.528;2023-02-24T15:22:24;19.70;48.40
4578;DHT22;2301;47.354;8.528;2023-02-24T15:24:53;19.60;48.60
4578;DHT22;2301;47.354;8.528;2023-02-24T15:27:26;19.50;48.70
4578;DHT22;2301;47.354;8.528;2023-02-24T15:30:00;19.40;48.40
4578;DHT22;2301;47.354;8.528;2023-02-24T15:32:29;19.40;48.80
4578;DHT22;2301;47.354;8.528;2023-02-24T15:34:57;19.30;49.00
4578;DHT22;2301;47.354;8.528;2023-02-24T15:37:26;19.20;49.20
4578;DHT22;2301;47.354;8.528;2023-02-24T15:40:06;19.20;49.20
4578;DHT22;2301;47.354;8.528;2023-02-24T15:42:35;19.10;49.10
4578;DHT22;2301;47.354;8.528;2023-02-24T15:45:05;19.00;49.30
4578;DHT22;2301;47.354;8.528;2023-02-24T15:47:50;18.90;49.30
4578;DHT22;2301;47.354;8.528;2023-02-24T15:50:19;18.80;49.20
4578;DHT22;2301;47.354;8.528;2023-02-24T15:52:46;18.60;48.90
4578;DHT22;2301;47.354;8.528;2023-02-24T15:55:14;18.40;48.90
4578;DHT22;2301;47.354;8.528;2023-02-24T15:57:42;18.30;49.70
4578;DHT22;2301;47.354;8.528;2023-02-24T16:00:14;18.10;49.30
4578;DHT22;2301;47.354;8.528;2023-02-24T16:02:43;18.00;49.50
4578;DHT22;2301;47.354;8.528;2023-02-24T16:05:12;17.90;49.50
4578;DHT22;2301;47.354;8.528;2023-02-24T16:07:43;17.70;50.30
4578;DHT22;2301;47.354;8.528;2023-02-24T16:10:17;17.60;51.10
4578;DHT22;2301;47.354;8.528;2023-02-24T16:12:48;17.50;51.00
4578;DHT22;2301;47.354;8.528;2023-02-24T16:15:22;17.40;51.30
4578;DHT22;2301;47.354;8.528;2023-02-24T16:17:51;17.30;51.30
4578;DHT22;2301;47.354;8.528;2023-02-24T16:20:21;17.20;51.30
4578;DHT22;2301;47.354;8.528;2023-02-24T16:22:55;17.10;51.50
4578;DHT22;2301;47.354;8.528;2023-02-24T16:25:23;17.00;51.50
4578;DHT22;2301;47.354;8.528;2023-02-24T16:27:50;16.90;51.60
4578;DHT22;2301;47.354;8.528;2023-02-24T16:30:25;16.80;51.60
4578;DHT22;2301;47.354;8.528;2023-02-24T16:32:55;16.70;52.10
4578;DHT22;2301;47.354;8.528;2023-02-24T16:35:22;16.50;52.20
4578;DHT22;2301;47.354;8.528;2023-02-24T16:37:49;16.40;52.80
4578;DHT22;2301;47.354;8.528;2023-02-24T16:40:23;16.30;53.20
4578;DHT22;2301;47.354;8.528;2023-02-24T16:42:50;16.20;53.60
4578;DHT22;2301;47.354;8.528;2023-02-24T16:45:18;16.20;54.10
4578;DHT22;2301;47.354;8.528;2023-02-24T16:47:47;16.10;54.20